Etusivu
METAR-TAF:

METAR-TAF

Lentoasemat :

Selma, Alabama, Yhdysvallat

Leveyspiiri: 32-20-38N, Pituuspiiri: 086-59-16W, korkeus merenpinnasta: 51 m

Tämänhetkinen sää

Tämä raportti tehtiin 24 minuuttia sitten, kello 05.55 UTC
tyyntä
Lämpötila 22°C
Kosteus 88%
Ilmanpaine 1015 hPa
Näkyvyys: 16.1 km

METAR: KSEM 170555Z AUTO 00000KT 10SM 22/20 A2998 RMK AO2

Aika: 01:19 (06:19 UTC)


TAF: puuttuu

Säähavainnot ja -ennusteet yli 4000 lentoasemalta (METAR- ja TAF-raportit).

Käytössä olevat sääasemat on merkitty karttaan keltaisilla ja punaisilla pisteillä.

Aseta hiiri pisteen päälle nähdäksesi sääaseman nimen.

Klikkaa sitten nähdäksesi säähavainnot ja -ennusteet.

Kartan vaihtaminen: klikkaa mustalla rastilla varustettuja vihreitä pisteitä, niin voit zoomata sisään; viivalla varustettua vihreää pistettä, niin voit zoomata ulos tai vihreitä nuolia, niin pääset viereisille kartoille.


METAR-TAF: